Time;durP1;ratioP1;P1;durP2;ratioP2;P2;SDS_P1;SDS_P2;PMS_P1;PMS_P2;Temp;Humidity;BMP_temperature;BMP_pressure;BME280_temperature;BME280_humidity;BME280_pressure;Samples;Min_cycle;Max_cycle;Signal;HPM_P1;HPM_P2
2021/12/06 00:01:22;;;;;;;44.20;26.20;;;;;;;0.76;79.41;99315.30;104740;1312;94682;-66
2021/12/06 00:03:59;;;;;;;44.20;26.30;;;;;;;0.76;79.23;99320.10;104385;1313;138656;-66
2021/12/06 00:06:33;;;;;;;41.30;25.40;;;;;;;0.79;79.37;99319.91;103499;1313;109234;-65
2021/12/06 00:09:08;;;;;;;43.50;25.90;;;;;;;0.82;79.39;99323.82;104430;1314;139599;-66
2021/12/06 00:11:41;;;;;;;41.00;25.50;;;;;;;0.89;79.45;99330.60;103416;1311;96754;-67
2021/12/06 00:14:13;;;;;;;40.40;26.00;;;;;;;0.92;79.33;99335.39;103191;1312;96523;-67
2021/12/06 00:16:45;;;;;;;42.50;26.30;;;;;;;0.96;79.20;99337.73;103255;1312;137921;-66
2021/12/06 00:19:18;;;;;;;43.80;26.80;;;;;;;0.98;79.12;99336.36;103411;1309;109372;-67
2021/12/06 00:21:50;;;;;;;42.80;25.70;;;;;;;0.97;79.06;99332.94;103213;1312;137708;-67
2021/12/06 00:24:22;;;;;;;43.60;24.90;;;;;;;0.97;79.27;99339.27;103493;1312;96510;-65
2021/12/06 00:26:54;;;;;;;40.20;24.40;;;;;;;1.00;79.34;99336.51;103162;1313;138070;-65
2021/12/06 00:29:27;;;;;;;40.30;24.70;;;;;;;1.01;79.13;99337.35;103437;1313;111282;-65
2021/12/06 00:31:59;;;;;;;41.90;24.40;;;;;;;1.01;79.23;99339.24;103469;1318;109146;-65
2021/12/06 00:34:35;;;;;;;41.10;25.10;;;;;;;0.99;78.97;99332.92;104511;1313;138704;-67
2021/12/06 00:37:18;;;;;;;41.10;24.50;;;;;;;1.02;79.14;99334.42;103430;1312;96501;-66
2021/12/06 00:39:53;;;;;;;41.20;24.20;;;;;;;1.05;79.14;99334.91;104642;1313;137212;-66
2021/12/06 00:42:30;;;;;;;44.00;26.10;;;;;;;1.08;79.02;99339.20;103877;1313;111212;-66
2021/12/06 00:45:05;;;;;;;45.20;26.10;;;;;;;1.06;78.92;99340.56;103292;1313;137997;-66
2021/12/06 00:47:37;;;;;;;43.90;26.10;;;;;;;1.00;78.93;99340.79;104343;1312;109119;-66
2021/12/06 00:50:10;;;;;;;41.30;24.90;;;;;;;0.96;78.87;99342.02;103124;1313;96565;-65
2021/12/06 00:52:43;;;;;;;39.00;24.60;;;;;;;0.95;78.98;99346.14;103175;1312;138008;-66
2021/12/06 00:55:15;;;;;;;41.10;24.40;;;;;;;0.91;78.99;99350.11;103025;1316;111089;-66
2021/12/06 00:57:49;;;;;;;39.80;24.00;;;;;;;0.92;79.16;99354.38;103314;1317;139263;-66
2021/12/06 01:00:25;;;;;;;42.80;24.60;;;;;;;0.97;79.26;99358.27;103833;1316;107473;-66
2021/12/06 01:02:58;;;;;;;42.60;25.50;;;;;;;0.98;79.20;99357.75;104531;1314;138076;-67
2021/12/06 01:05:31;;;;;;;41.40;26.00;;;;;;;0.97;79.04;99359.30;103873;1315;96451;-65
2021/12/06 01:08:04;;;;;;;45.70;26.30;;;;;;;0.98;79.07;99355.18;103352;1313;112284;-65
2021/12/06 01:10:37;;;;;;;43.40;26.20;;;;;;;1.01;79.34;99355.48;104559;1314;138512;-66
2021/12/06 01:13:09;;;;;;;43.50;25.90;;;;;;;1.05;79.26;99348.61;103663;1310;106923;-65
2021/12/06 01:15:42;;;;;;;41.90;24.60;;;;;;;1.04;79.19;99335.77;103275;1313;137774;-65
2021/12/06 01:18:17;;;;;;;41.50;24.10;;;;;;;1.02;79.00;99333.58;103307;1313;96626;-64
2021/12/06 01:20:56;;;;;;;40.60;25.00;;;;;;;0.96;78.93;99341.69;103132;1315;138733;-65
2021/12/06 01:23:41;;;;;;;38.40;23.40;;;;;;;0.95;79.30;99345.45;103375;1312;107984;-65
2021/12/06 01:26:31;;;;;;;38.80;23.00;;;;;;;0.94;79.34;99342.55;103339;1316;109559;-65
2021/12/06 01:29:35;;;;;;;39.00;24.20;;;;;;;0.95;79.16;99342.55;104600;1315;137941;-65
2021/12/06 01:32:15;;;;;;;41.90;23.80;;;;;;;0.97;79.38;99343.38;104622;1313;94741;-65
2021/12/06 01:40:27;;;;;;;43.70;26.30;;;;;;;0.97;79.27;99351.25;103213;1312;138736;-66
2021/12/06 01:43:04;;;;;;;43.00;25.40;;;;;;;0.95;79.26;99353.16;103387;1312;96488;-66
2021/12/06 01:45:36;;;;;;;43.80;24.40;;;;;;;0.94;79.34;99357.45;103176;1313;138008;-66
2021/12/06 01:48:09;;;;;;;41.50;23.70;;;;;;;0.91;79.30;99362.27;103401;1312;111361;-66
2021/12/06 01:50:41;;;;;;;42.30;24.10;;;;;;;0.89;79.30;99366.19;103209;1316;138513;-67
2021/12/06 01:53:14;;;;;;;39.60;23.80;;;;;;;0.90;79.50;99371.16;103426;1313;106333;-66
2021/12/06 01:55:46;;;;;;;43.00;24.00;;;;;;;0.92;79.36;99382.11;103379;1312;96621;-66
2021/12/06 01:58:18;;;;;;;39.20;23.60;;;;;;;0.95;79.41;99387.05;104120;1313;138791;-66
2021/12/06 02:00:54;;;;;;;41.50;24.00;;;;;;;0.98;79.36;99388.39;103416;1313;110038;-66
2021/12/06 02:03:31;;;;;;;39.50;23.80;;;;;;;1.00;79.38;99382.73;103250;1313;137673;-66
2021/12/06 02:06:05;;;;;;;42.90;25.20;;;;;;;0.99;79.37;99380.84;103346;1312;108702;-66
2021/12/06 02:08:39;;;;;;;43.20;24.50;;;;;;;0.96;79.35;99385.33;103409;1312;96511;-66
2021/12/06 02:11:12;;;;;;;40.60;23.00;;;;;;;0.95;79.36;99381.90;104593;1313;137895;-66
2021/12/06 02:13:52;;;;;;;38.40;23.30;;;;;;;0.95;79.40;99374.90;103649;1319;110773;-66
2021/12/06 02:16:34;;;;;;;41.40;23.50;;;;;;;0.97;79.48;99375.39;103278;1313;139504;-66
2021/12/06 02:19:06;;;;;;;37.60;21.70;;;;;;;0.97;79.25;99376.41;103415;1314;109086;-66
2021/12/06 02:21:42;;;;;;;43.60;23.40;;;;;;;0.99;79.44;99378.46;103333;1313;137606;-65
2021/12/06 02:24:15;;;;;;;40.20;23.60;;;;;;;1.04;79.52;99378.40;103426;1315;96520;-66
2021/12/06 02:26:48;;;;;;;37.80;23.00;;;;;;;1.09;79.56;99378.90;103175;1313;137819;-66
2021/12/06 02:29:21;;;;;;;40.10;23.90;;;;;;;1.10;79.49;99383.85;103416;1312;109010;-66
2021/12/06 02:31:54;;;;;;;43.50;24.10;;;;;;;1.09;79.48;99381.48;103208;1314;109165;-66
2021/12/06 02:34:26;;;;;;;39.70;22.40;;;;;;;1.06;79.35;99381.30;103204;1314;137915;-66
2021/12/06 02:36:58;;;;;;;39.70;23.60;;;;;;;1.03;79.26;99383.02;103404;1313;96591;-66
2021/12/06 02:39:31;;;;;;;37.50;21.90;;;;;;;1.05;79.51;99384.05;103170;1318;138731;-66
2021/12/06 02:42:05;;;;;;;34.60;22.00;;;;;;;1.09;79.58;99386.77;103222;1314;108999;-66
2021/12/06 02:44:37;;;;;;;36.20;20.90;;;;;;;1.14;79.52;99384.67;103717;1313;108797;-66
2021/12/06 02:47:10;;;;;;;37.40;21.70;;;;;;;1.19;79.44;99382.05;103217;1316;137832;-66
2021/12/06 02:49:43;;;;;;;36.00;21.20;;;;;;;1.20;79.22;99382.73;104678;1314;94739;-66
2021/12/06 02:52:15;;;;;;;37.60;21.80;;;;;;;1.22;79.18;99381.52;104407;1312;137778;-66
2021/12/06 02:54:55;;;;;;;34.20;21.40;;;;;;;1.21;79.16;99381.69;104704;1313;108893;-66
2021/12/06 02:57:35;;;;;;;37.10;21.80;;;;;;;1.22;79.17;99382.89;103338;1313;137871;-66
2021/12/06 03:00:11;;;;;;;36.90;21.60;;;;;;;1.19;78.97;99385.31;104697;1312;94480;-66
2021/12/06 03:02:44;;;;;;;35.10;21.10;;;;;;;1.13;78.97;99386.90;103939;1312;96539;-66
2021/12/06 03:05:16;;;;;;;32.90;20.60;;;;;;;1.11;79.01;99390.02;103197;1316;137921;-66
2021/12/06 03:07:53;;;;;;;32.80;20.50;;;;;;;1.11;78.92;99389.48;103435;1314;109114;-66
2021/12/06 03:10:25;;;;;;;31.90;20.20;;;;;;;1.14;79.24;99386.21;103214;1312;138246;-66
2021/12/06 03:12:59;;;;;;;32.00;19.60;;;;;;;1.17;79.12;99387.21;103368;1312;96585;-65
2021/12/06 03:15:32;;;;;;;32.80;20.40;;;;;;;1.17;79.14;99379.52;103381;1314;138287;-66
2021/12/06 03:18:04;;;;;;;31.60;19.00;;;;;;;1.17;79.00;99383.10;103425;1314;111049;-65
2021/12/06 03:20:36;;;;;;;35.20;21.00;;;;;;;1.19;79.22;99383.61;103393;1312;108928;-66
2021/12/06 03:23:08;;;;;;;33.00;19.10;;;;;;;1.21;79.12;99384.77;103373;1312;138311;-65
2021/12/06 03:25:41;;;;;;;33.10;20.10;;;;;;;1.17;78.76;99384.98;103490;1316;96912;-67
2021/12/06 03:28:13;;;;;;;32.40;20.70;;;;;;;1.12;78.93;99386.41;103404;1309;139045;-68
2021/12/06 03:30:46;;;;;;;32.00;19.40;;;;;;;1.06;78.84;99383.70;104527;1312;111337;-66
2021/12/06 03:33:18;;;;;;;32.80;18.70;;;;;;;1.00;78.87;99386.48;103385;1313;138755;-65
2021/12/06 03:35:51;;;;;;;29.40;18.30;;;;;;;0.95;78.89;99391.16;103385;1312;109158;-65
2021/12/06 03:38:24;;;;;;;29.20;17.70;;;;;;;0.88;79.01;99394.77;103485;1312;96590;-66
2021/12/06 03:40:56;;;;;;;28.70;17.40;;;;;;;0.87;79.36;99396.83;103312;1313;138652;-65
2021/12/06 03:43:29;;;;;;;27.50;16.50;;;;;;;0.88;79.33;99399.05;103488;1312;110953;-65
2021/12/06 03:46:03;;;;;;;24.00;15.80;;;;;;;0.89;79.13;99401.62;103987;1313;137868;-66
2021/12/06 03:48:36;;;;;;;26.20;17.00;;;;;;;0.93;79.38;99398.87;104681;1318;108836;-66
2021/12/06 03:51:09;;;;;;;24.30;16.00;;;;;;;0.92;79.30;99399.91;104567;1314;138403;-65
2021/12/06 03:53:43;;;;;;;26.90;16.40;;;;;;;0.89;79.36;99400.76;103715;1313;94656;-66
2021/12/06 03:56:15;;;;;;;23.90;15.50;;;;;;;0.90;79.36;99405.73;104659;1312;110304;-66
2021/12/06 03:58:49;;;;;;;24.70;16.10;;;;;;;0.92;79.55;99411.55;104418;1313;138126;-66
2021/12/06 04:01:21;;;;;;;24.10;15.00;;;;;;;0.95;79.53;99411.52;104123;1313;107887;-66
2021/12/06 04:03:53;;;;;;;20.60;14.00;;;;;;;0.95;79.38;99411.86;103180;1313;138337;-66
2021/12/06 04:06:27;;;;;;;21.10;13.70;;;;;;;0.96;79.45;99411.52;103317;1316;96490;-66
2021/12/06 04:08:59;;;;;;;20.50;13.30;;;;;;;0.99;79.39;99418.34;103167;1316;138348;-66
2021/12/06 04:11:31;;;;;;;18.40;12.20;;;;;;;1.01;79.27;99418.83;103306;1314;109303;-66
2021/12/06 04:14:06;;;;;;;20.40;13.40;;;;;;;0.99;79.33;99421.76;103306;1313;109265;-66
2021/12/06 04:16:39;;;;;;;18.20;13.20;;;;;;;1.00;79.33;99422.77;103616;1321;137478;-66
2021/12/06 04:19:12;;;;;;;20.70;13.50;;;;;;;1.02;79.31;99429.44;104495;1313;94631;-66
2021/12/06 04:21:47;;;;;;;18.00;12.50;;;;;;;1.02;79.31;99430.63;103408;1312;139048;-66
2021/12/06 04:24:19;;;;;;;21.10;13.00;;;;;;;0.97;79.04;99435.64;103467;1316;107323;-66
2021/12/06 04:26:52;;;;;;;19.50;12.60;;;;;;;0.94;79.08;99437.21;103313;1316;108537;-65
2021/12/06 04:29:25;;;;;;;20.20;12.40;;;;;;;0.92;79.20;99440.30;103172;1312;138579;-66
2021/12/06 04:31:57;;;;;;;20.90;12.70;;;;;;;0.90;79.34;99447.66;103319;1313;97152;-66
2021/12/06 04:34:29;;;;;;;18.80;12.40;;;;;;;0.89;79.42;99452.80;103259;1313;139156;-67
2021/12/06 04:37:02;;;;;;;17.80;12.50;;;;;;;0.88;79.39;99460.84;103281;1313;109097;-66
2021/12/06 04:39:34;;;;;;;18.10;11.80;;;;;;;0.91;79.41;99462.73;103336;1313;138324;-66
2021/12/06 04:42:08;;;;;;;21.20;13.50;;;;;;;0.93;79.46;99464.60;103148;1319;96673;-67
2021/12/06 04:44:41;;;;;;;19.50;13.10;;;;;;;0.91;79.47;99468.55;103317;1315;97000;-67
2021/12/06 04:47:13;;;;;;;22.80;14.10;;;;;;;0.94;79.29;99475.02;103093;1313;137529;-67
2021/12/06 04:49:45;;;;;;;19.90;13.20;;;;;;;0.91;79.45;99475.91;103188;1316;109278;-67
2021/12/06 04:52:19;;;;;;;23.20;14.80;;;;;;;0.86;79.35;99480.02;103138;1312;138614;-67
2021/12/06 04:54:55;;;;;;;21.90;14.40;;;;;;;0.82;79.37;99483.99;103291;1316;96922;-66
2021/12/06 04:57:31;;;;;;;23.50;14.20;;;;;;;0.78;79.47;99486.74;103501;1313;139290;-65
2021/12/06 05:00:12;;;;;;;24.50;15.00;;;;;;;0.76;79.63;99490.19;103320;1318;111125;-66
2021/12/06 05:02:45;;;;;;;22.10;14.50;;;;;;;0.73;79.64;99496.88;104644;1315;107735;-66
2021/12/06 05:05:23;;;;;;;24.60;14.40;;;;;;;0.74;79.64;99499.27;104487;1313;138929;-65
2021/12/06 05:07:58;;;;;;;25.80;16.30;;;;;;;0.73;79.72;99498.59;103487;1315;96506;-67
2021/12/06 05:10:32;;;;;;;26.80;16.20;;;;;;;0.74;79.77;99504.74;103254;1312;137553;-66
2021/12/06 05:13:06;;;;;;;26.10;16.20;;;;;;;0.75;79.85;99508.67;103306;1317;111135;-66
2021/12/06 05:15:38;;;;;;;30.00;17.30;;;;;;;0.73;79.82;99510.90;104209;1317;138358;-66
2021/12/06 05:18:11;;;;;;;28.10;17.50;;;;;;;0.73;79.94;99509.20;104679;1312;108099;-67
2021/12/06 05:20:43;;;;;;;26.50;16.10;;;;;;;0.71;79.95;99508.50;103675;1309;96513;-66
2021/12/06 05:23:16;;;;;;;27.90;16.50;;;;;;;0.71;79.91;99506.61;103184;1313;138144;-66
2021/12/06 05:25:50;;;;;;;26.20;16.60;;;;;;;0.75;80.08;99501.48;103373;1315;111071;-66
2021/12/06 05:28:26;;;;;;;27.30;16.70;;;;;;;0.78;80.05;99498.73;104653;1312;139183;-67
2021/12/06 05:30:58;;;;;;;25.50;16.70;;;;;;;0.79;80.00;99492.55;104666;1313;108859;-67
2021/12/06 05:33:31;;;;;;;26.20;16.50;;;;;;;0.81;79.84;99491.70;104537;1312;138479;-67
2021/12/06 05:36:07;;;;;;;25.90;16.60;;;;;;;0.82;79.73;99486.55;104262;1320;94589;-67
2021/12/06 05:38:40;;;;;;;28.20;17.50;;;;;;;0.81;79.72;99484.51;104126;1317;111876;-66
2021/12/06 05:41:12;;;;;;;29.30;18.10;;;;;;;0.80;79.62;99486.39;103300;1312;138348;-66
2021/12/06 05:43:44;;;;;;;31.00;19.20;;;;;;;0.74;79.53;99484.55;103533;1313;108784;-66
2021/12/06 05:46:17;;;;;;;31.00;18.30;;;;;;;0.70;79.79;99480.09;103443;1313;137731;-67
2021/12/06 05:48:50;;;;;;;28.80;17.50;;;;;;;0.64;79.65;99475.35;103536;1312;96596;-67
2021/12/06 05:51:22;;;;;;;27.70;17.90;;;;;;;0.65;80.01;99470.38;103358;1312;138275;-67
2021/12/06 05:53:54;;;;;;;29.80;18.10;;;;;;;0.69;80.23;99465.90;103444;1316;108914;-67
2021/12/06 05:56:27;;;;;;;27.60;17.30;;;;;;;0.75;80.08;99466.23;103433;1316;107936;-67
2021/12/06 05:58:59;;;;;;;26.90;16.50;;;;;;;0.77;79.98;99460.58;103408;1313;138308;-66
2021/12/06 06:01:31;;;;;;;27.00;17.10;;;;;;;0.78;79.75;99465.19;103488;1313;96481;-66
2021/12/06 06:04:04;;;;;;;27.60;17.60;;;;;;;0.76;79.86;99464.00;103417;1315;137408;-66
2021/12/06 06:06:39;;;;;;;27.10;16.60;;;;;;;0.72;79.47;99465.89;103448;1312;108797;-66
2021/12/06 06:09:11;;;;;;;26.40;16.70;;;;;;;0.66;79.66;99465.06;103398;1313;139066;-67
2021/12/06 06:11:44;;;;;;;28.20;16.80;;;;;;;0.62;79.65;99468.52;103508;1313;96524;-66
2021/12/06 06:14:18;;;;;;;25.70;16.50;;;;;;;0.58;79.61;99469.73;104765;1313;95405;-67
2021/12/06 06:16:52;;;;;;;26.00;16.20;;;;;;;0.52;79.75;99472.14;104197;1313;138133;-66
2021/12/06 06:19:26;;;;;;;25.10;15.80;;;;;;;0.49;79.75;99476.09;103378;1314;108781;-66
2021/12/06 06:25:38;;;;;;;24.80;15.70;;;;;;;0.51;80.00;99493.70;102521;1306;96541;-65
2021/12/06 06:28:11;;;;;;;24.00;15.40;;;;;;;0.56;80.19;99498.13;103000;1318;138294;-66
2021/12/06 06:30:44;;;;;;;25.60;15.30;;;;;;;0.60;80.06;99504.61;103105;1315;111469;-66
2021/12/06 06:33:16;;;;;;;24.70;15.40;;;;;;;0.62;80.13;99514.19;104364;1315;138738;-66
2021/12/06 06:35:48;;;;;;;25.50;16.00;;;;;;;0.62;79.88;99521.55;104303;1315;158930;-65
2021/12/06 06:38:20;;;;;;;26.20;16.80;;;;;;;0.58;79.79;99527.38;103970;1319;96523;-66
2021/12/06 06:40:53;;;;;;;25.40;16.90;;;;;;;0.58;79.80;99536.61;103515;1315;139150;-65
2021/12/06 06:43:25;;;;;;;25.40;16.50;;;;;;;0.56;79.79;99549.80;104533;1314;110908;-66
2021/12/06 06:45:58;;;;;;;26.30;16.40;;;;;;;0.55;79.90;99554.93;103530;1315;139127;-67
2021/12/06 06:48:31;;;;;;;28.10;16.60;;;;;;;0.56;79.78;99563.48;103182;1315;109138;-66
2021/12/06 06:51:03;;;;;;;32.80;18.60;;;;;;;0.54;80.04;99567.94;104424;1316;94685;-66
2021/12/06 06:53:35;;;;;;;31.00;16.90;;;;;;;0.56;80.09;99569.98;104394;1315;139364;-66
2021/12/06 06:56:08;;;;;;;29.80;18.00;;;;;;;0.58;80.13;99571.70;104471;1314;110390;-67
2021/12/06 06:58:40;;;;;;;30.10;17.70;;;;;;;0.62;80.16;99577.15;104357;1316;138312;-65
2021/12/06 07:01:12;;;;;;;30.50;18.30;;;;;;;0.68;79.99;99580.36;104437;1316;108957;-66
2021/12/06 07:03:44;;;;;;;33.70;20.50;;;;;;;0.74;80.27;99584.82;104106;1315;137708;-65
2021/12/06 07:06:16;;;;;;;32.30;19.00;;;;;;;0.83;80.24;99585.11;103124;1316;96497;-66
2021/12/06 07:08:48;;;;;;;33.40;19.40;;;;;;;0.88;80.27;99578.25;103220;1315;111314;-66
2021/12/06 07:11:21;;;;;;;33.40;19.80;;;;;;;0.87;79.83;99571.91;103052;1315;138138;-66
2021/12/06 07:13:54;;;;;;;33.60;19.80;;;;;;;0.80;79.42;99568.02;103200;1314;108409;-66
2021/12/06 07:16:29;;;;;;;35.90;20.00;;;;;;;0.71;79.22;99562.40;102919;1316;137682;-66
2021/12/06 07:19:01;;;;;;;35.50;20.40;;;;;;;0.64;79.34;99559.85;103124;1317;96587;-65
2021/12/06 07:21:53;;;;;;;35.70;20.70;;;;;;;0.59;79.52;99556.11;103004;1316;138372;-66
2021/12/06 07:24:25;;;;;;;39.00;21.30;;;;;;;0.58;79.75;99558.17;103029;1317;108919;-66
2021/12/06 07:26:58;;;;;;;38.40;21.50;;;;;;;0.54;79.61;99567.92;103128;1317;108996;-66
2021/12/06 07:29:33;;;;;;;37.30;21.40;;;;;;;0.53;79.71;99566.04;103081;1316;138450;-67
2021/12/06 07:32:07;;;;;;;34.40;21.00;;;;;;;0.53;79.71;99563.81;103161;1316;96503;-67
2021/12/06 07:34:40;;;;;;;36.60;20.90;;;;;;;0.48;79.61;99564.35;103254;1316;137400;-66
2021/12/06 07:37:12;;;;;;;41.30;23.80;;;;;;;0.46;79.96;99572.39;103214;1316;108952;-65
2021/12/06 07:39:44;;;;;;;41.30;23.90;;;;;;;0.47;79.98;99574.43;103055;1316;137820;-66
2021/12/06 07:42:17;;;;;;;42.60;24.20;;;;;;;0.49;79.97;99570.67;103145;1315;96516;-65
2021/12/06 07:44:50;;;;;;;42.00;23.00;;;;;;;0.48;79.82;99563.32;103181;1315;96522;-67
2021/12/06 07:47:23;;;;;;;43.90;23.60;;;;;;;0.47;79.84;99563.49;103141;1315;139038;-67
2021/12/06 07:49:55;;;;;;;45.00;24.90;;;;;;;0.50;80.06;99562.28;104164;1316;109018;-66
2021/12/06 07:52:31;;;;;;;48.70;24.30;;;;;;;0.51;80.04;99574.59;103587;1317;138215;-66
2021/12/06 07:55:03;;;;;;;45.50;23.90;;;;;;;0.58;80.27;99580.08;103130;1315;96506;-65
2021/12/06 07:57:36;;;;;;;43.70;23.90;;;;;;;0.65;80.08;99579.87;103132;1315;138644;-65
2021/12/06 08:00:13;;;;;;;42.80;24.30;;;;;;;0.63;79.78;99582.79;103094;1315;111379;-65
2021/12/06 08:02:45;;;;;;;47.00;25.10;;;;;;;0.63;79.86;99587.06;103498;1316;108856;-65
2021/12/06 08:05:30;;;;;;;45.20;24.80;;;;;;;0.67;79.92;99587.73;103015;1319;138116;-65
2021/12/06 08:08:07;;;;;;;48.50;25.90;;;;;;;0.72;79.69;99583.80;103235;1316;96498;-65
2021/12/06 08:10:44;;;;;;;49.20;27.00;;;;;;;0.74;79.62;99580.71;103510;1315;137430;-65
2021/12/06 08:13:19;;;;;;;49.30;25.60;;;;;;;0.72;79.64;99574.72;103151;1315;111228;-65
2021/12/06 08:15:53;;;;;;;44.50;24.40;;;;;;;0.68;79.63;99572.50;103110;1315;138504;-65
2021/12/06 08:18:26;;;;;;;55.70;28.10;;;;;;;0.60;79.28;99578.52;104510;1318;108842;-66
2021/12/06 08:21:00;;;;;;;53.10;27.00;;;;;;;0.51;79.22;99586.56;103592;1316;96514;-65
2021/12/06 08:23:33;;;;;;;50.50;26.60;;;;;;;0.44;79.43;99589.33;103129;1315;137996;-65
2021/12/06 08:26:09;;;;;;;53.60;27.90;;;;;;;0.43;79.52;99589.67;103188;1316;111343;-65
2021/12/06 08:28:42;;;;;;;60.20;30.20;;;;;;;0.44;79.76;99600.10;103067;1315;137792;-66
2021/12/06 08:31:14;;;;;;;55.10;29.60;;;;;;;0.50;79.93;99602.48;103037;1316;108949;-65
2021/12/06 08:33:49;;;;;;;52.40;28.10;;;;;;;0.49;79.66;99607.95;102878;1315;137776;-65
2021/12/06 08:36:22;;;;;;;58.60;29.80;;;;;;;0.41;79.54;99612.09;103026;1318;96838;-66
2021/12/06 08:38:55;;;;;;;54.40;29.30;;;;;;;0.42;79.73;99612.08;102987;1315;111255;-66
2021/12/06 08:41:30;;;;;;;53.50;28.60;;;;;;;0.44;79.95;99618.58;103004;1317;139339;-65
2021/12/06 08:44:04;;;;;;;54.40;29.20;;;;;;;0.46;79.97;99617.71;103160;1316;108868;-65
2021/12/06 08:46:38;;;;;;;55.10;27.90;;;;;;;0.45;79.89;99617.04;102936;1316;138308;-67
2021/12/06 08:49:12;;;;;;;58.10;29.50;;;;;;;0.46;79.78;99617.02;104353;1315;94699;-65
2021/12/06 08:51:47;;;;;;;53.40;29.30;;;;;;;0.49;79.78;99625.57;104391;1316;138869;-65
2021/12/06 08:54:22;;;;;;;56.10;30.10;;;;;;;0.52;79.64;99630.69;103453;1319;107960;-65
2021/12/06 08:56:55;;;;;;;56.20;30.00;;;;;;;0.50;79.71;99631.39;103222;1316;109090;-65
2021/12/06 08:59:28;;;;;;;52.40;28.30;;;;;;;0.51;79.70;99642.49;103004;1316;138455;-64
2021/12/06 09:02:00;;;;;;;59.90;32.20;;;;;;;0.54;79.71;99648.49;103044;1316;96503;-66
2021/12/06 09:04:53;;;;;;;56.70;29.40;;;;;;;0.54;79.65;99646.45;102888;1317;137629;-65
2021/12/06 09:07:25;;;;;;;58.30;30.20;;;;;;;0.52;79.34;99646.10;103117;1316;108943;-66
2021/12/06 09:09:58;;;;;;;54.60;29.30;;;;;;;0.48;79.36;99636.86;102936;1316;138628;-65
2021/12/06 09:12:31;;;;;;;52.70;29.00;;;;;;;0.46;79.45;99646.80;102992;1319;96500;-65
2021/12/06 09:15:11;;;;;;;54.00;28.40;;;;;;;0.45;79.31;99656.70;103001;1317;96613;-66
2021/12/06 09:17:43;;;;;;;54.80;29.40;;;;;;;0.47;79.52;99654.14;103069;1316;137340;-65
2021/12/06 09:20:17;;;;;;;58.90;30.70;;;;;;;0.50;79.45;99655.50;103095;1317;107493;-65
2021/12/06 09:22:50;;;;;;;61.60;31.80;;;;;;;0.48;79.34;99655.85;102914;1316;137835;-65
2021/12/06 09:25:23;;;;;;;64.90;32.90;;;;;;;0.48;79.30;99657.91;103111;1316;96606;-66
2021/12/06 09:27:55;;;;;;;62.20;32.80;;;;;;;0.48;79.22;99661.49;103017;1316;137676;-67
2021/12/06 09:30:31;;;;;;;65.50;31.40;;;;;;;0.47;79.30;99658.59;103034;1319;111255;-66
2021/12/06 09:33:08;;;;;;;59.80;30.10;;;;;;;0.47;79.10;99660.30;103057;1315;107997;-66
2021/12/06 09:35:43;;;;;;;59.50;30.00;;;;;;;0.40;78.98;99660.32;104296;1317;138411;-66
2021/12/06 09:38:21;;;;;;;55.30;29.70;;;;;;;0.35;79.07;99658.93;103210;1317;96599;-66
2021/12/06 09:40:58;;;;;;;52.50;28.40;;;;;;;0.37;79.33;99658.94;103398;1316;138284;-66
2021/12/06 09:43:30;;;;;;;54.80;29.20;;;;;;;0.42;79.41;99664.08;103008;1317;111321;-66
2021/12/06 09:46:03;;;;;;;58.00;30.80;;;;;;;0.46;79.30;99662.19;102988;1320;139103;-66
2021/12/06 09:48:36;;;;;;;60.70;31.40;;;;;;;0.45;79.19;99659.63;103102;1320;108870;-66
2021/12/06 09:51:14;;;;;;;54.20;29.30;;;;;;;0.43;79.27;99649.70;103913;1316;94819;-66
2021/12/06 09:53:48;;;;;;;61.00;29.80;;;;;;;0.38;79.02;99646.64;103250;1322;137436;-66
2021/12/06 09:56:23;;;;;;;54.30;28.60;;;;;;;0.35;79.03;99644.92;104529;1316;110226;-67
2021/12/06 09:58:56;;;;;;;53.50;28.40;;;;;;;0.36;79.23;99640.64;103792;1320;137557;-67
2021/12/06 10:01:32;;;;;;;53.10;27.80;;;;;;;0.37;78.90;99642.88;104344;1317;108543;-67
2021/12/06 10:04:06;;;;;;;;;;;;;;;0.36;78.88;99642.70;104287;1316;138340;-67
2021/12/06 10:06:38;;;;;;;52.30;27.90;;;;;;;0.37;78.99;99636.38;102909;1321;96576;-65
2021/12/06 10:09:12;;;;;;;51.70;28.60;;;;;;;0.38;78.74;99633.64;103078;1316;112330;-67
2021/12/06 10:11:44;;;;;;;56.50;29.30;;;;;;;0.40;78.90;99636.55;103582;1318;138465;-66
2021/12/06 10:14:17;;;;;;;55.50;30.80;;;;;;;0.40;78.81;99640.99;104435;1315;107702;-65
2021/12/06 10:16:49;;;;;;;58.30;30.70;;;;;;;0.37;78.67;99642.70;103747;1320;137525;-65
2021/12/06 10:19:23;;;;;;;59.40;31.50;;;;;;;0.38;78.79;99643.90;104475;1321;94749;-66
2021/12/06 10:21:55;;;;;;;60.20;31.80;;;;;;;0.42;78.86;99640.65;104360;1316;140148;-66
2021/12/06 10:24:31;;;;;;;62.20;32.10;;;;;;;0.40;78.61;99639.96;103465;1322;109124;-65
2021/12/06 10:27:13;;;;;;;59.80;31.00;;;;;;;0.35;78.65;99639.28;103469;1316;107897;-65
2021/12/06 10:29:49;;;;;;;62.70;33.30;;;;;;;0.28;78.73;99635.35;104169;1316;137369;-66
2021/12/06 10:32:24;;;;;;;58.50;31.60;;;;;;;0.30;78.86;99635.00;103077;1316;96463;-65
2021/12/06 10:34:58;;;;;;;59.60;31.60;;;;;;;0.30;79.13;99641.14;104248;1319;138942;-65
2021/12/06 10:37:36;;;;;;;59.00;31.90;;;;;;;0.32;79.05;99644.05;103429;1316;108969;-66
2021/12/06 10:40:11;;;;;;;60.10;31.70;;;;;;;0.33;79.17;99648.15;102923;1321;138821;-65
2021/12/06 10:42:46;;;;;;;56.30;30.70;;;;;;;0.37;79.24;99649.54;104353;1317;94928;-65
2021/12/06 10:45:21;;;;;;;55.40;30.00;;;;;;;0.38;78.98;99651.43;104117;1315;94953;-66
2021/12/06 10:48:14;;;;;;;56.10;30.80;;;;;;;0.36;78.85;99653.64;103398;1316;138121;-64
2021/12/06 10:50:55;;;;;;;61.40;31.90;;;;;;;0.39;79.00;99659.98;103026;1316;109119;-67
2021/12/06 10:53:32;;;;;;;60.30;32.10;;;;;;;0.38;78.81;99659.29;103176;1315;137597;-65
2021/12/06 10:56:14;;;;;;;59.70;32.50;;;;;;;0.41;78.85;99658.60;103014;1316;96472;-65
2021/12/06 10:58:48;;;;;;;61.90;33.10;;;;;;;0.40;78.66;99661.86;103472;1317;137755;-66
2021/12/06 11:01:24;;;;;;;59.40;32.30;;;;;;;0.37;78.87;99659.13;103079;1317;111779;-65
2021/12/06 11:04:18;;;;;;;61.40;32.00;;;;;;;0.34;78.72;99659.95;103525;1319;137864;-66
2021/12/06 11:06:53;;;;;;;60.50;31.00;;;;;;;0.30;78.44;99664.06;104142;1320;109007;-66
2021/12/06 11:09:26;;;;;;;61.60;31.50;;;;;;;0.29;78.74;99664.92;103291;1317;96565;-65
2021/12/06 11:12:01;;;;;;;61.60;30.60;;;;;;;0.34;78.75;99666.45;103015;1317;138144;-65
2021/12/06 11:14:35;;;;;;;55.30;30.60;;;;;;;0.35;78.39;99663.73;102922;1320;111353;-65
2021/12/06 11:17:10;;;;;;;54.30;28.20;;;;;;;0.31;78.48;99660.13;103970;1317;137649;-66
2021/12/06 11:19:42;;;;;;;50.50;27.50;;;;;;;0.23;78.26;99656.73;103968;1321;107581;-65
2021/12/06 11:22:21;;;;;;;55.30;29.30;;;;;;;0.17;78.46;99659.79;103895;1318;138652;-65
2021/12/06 11:24:55;;;;;;;55.20;30.60;;;;;;;0.14;78.45;99660.13;103033;1318;96640;-72
2021/12/06 11:27:29;;;;;;;51.50;29.80;;;;;;;0.13;78.51;99655.86;102914;1323;111185;-68
2021/12/06 11:30:05;;;;;;;53.70;28.40;;;;;;;0.10;78.52;99653.13;102655;1319;138995;-68
2021/12/06 11:32:40;;;;;;;53.40;28.40;;;;;;;0.07;78.51;99649.36;102792;1319;109115;-69
2021/12/06 11:35:16;;;;;;;49.20;26.90;;;;;;;0.05;78.56;99655.02;102691;1320;138337;-68
2021/12/06 11:37:51;;;;;;;49.70;28.00;;;;;;;0.05;78.69;99657.74;102927;1319;96527;-69
2021/12/06 11:40:29;;;;;;;53.10;29.10;;;;;;;0.10;78.89;99655.35;102142;1318;140543;-69
2021/12/06 11:43:06;;;;;;;51.00;29.00;;;;;;;0.16;78.73;99653.29;102036;1318;108930;-70
2021/12/06 11:45:43;;;;;;;52.70;29.10;;;;;;;0.17;78.63;99647.98;102342;1306;109047;-69
2021/12/06 11:48:17;;;;;;;51.90;29.50;;;;;;;0.20;78.58;99655.02;101784;1305;137730;-70
2021/12/06 11:50:52;;;;;;;53.70;28.10;;;;;;;0.22;79.12;99659.80;103407;1319;95044;-69
2021/12/06 11:53:28;;;;;;;50.40;28.00;;;;;;;0.21;78.67;99663.05;103251;1317;138398;-70